Time;durP1;ratioP1;P1;durP2;ratioP2;P2;SDS_P1;SDS_P2;PMS_P1;PMS_P2;Temp;Humidity;BMP_temperature;BMP_pressure;BME280_temperature;BME280_humidity;BME280_pressure;Samples;Min_cycle;Max_cycle;Signal;HPM_P1;HPM_P2
2023/06/19 00:01:14;;;;;;;5.80;5.20;;;;;;;24.30;38.33;98394.72;5194616;27;39766;-77
2023/06/19 00:03:41;;;;;;;5.97;5.47;;;;;;;24.30;38.71;98392.00;5158216;27;40780;-76
2023/06/19 00:06:09;;;;;;;5.27;4.87;;;;;;;24.32;38.67;98378.28;5194456;27;42741;-77
2023/06/19 00:08:37;;;;;;;6.27;5.77;;;;;;;24.31;38.62;98368.47;5175551;27;41138;-76
2023/06/19 00:11:06;;;;;;;6.07;5.47;;;;;;;24.25;38.56;98370.09;5194400;27;41035;-75
2023/06/19 00:13:34;;;;;;;5.37;4.87;;;;;;;24.30;38.66;98380.34;5158119;27;41677;-76
2023/06/19 00:16:02;;;;;;;5.53;5.07;;;;;;;24.21;38.92;98357.13;5175454;27;43242;-76
2023/06/19 00:18:30;;;;;;;5.50;5.00;;;;;;;24.31;38.88;98377.44;5177206;27;42213;-76
2023/06/19 00:20:57;;;;;;;6.47;5.97;;;;;;;24.30;38.88;98370.34;5179356;27;39907;-77
2023/06/19 00:23:25;;;;;;;6.10;5.50;;;;;;;24.30;38.49;98369.50;5179148;27;40587;-76
2023/06/19 00:25:52;;;;;;;6.00;5.37;;;;;;;24.31;38.51;98368.47;5179241;27;42804;-76
2023/06/19 00:28:21;;;;;;;5.47;5.00;;;;;;;24.32;38.27;98375.56;5161787;27;42204;-76
2023/06/19 00:30:49;;;;;;;6.23;5.67;;;;;;;24.30;38.57;98369.50;5178937;27;40078;-76
2023/06/19 00:33:17;;;;;;;5.87;5.37;;;;;;;24.30;38.52;98369.50;5161713;27;40930;-76
2023/06/19 00:35:46;;;;;;;6.03;5.53;;;;;;;24.29;38.43;98373.25;5179481;27;41862;-76
2023/06/19 00:38:13;;;;;;;6.77;6.17;;;;;;;24.25;39.56;98371.97;5162348;27;42639;-76
2023/06/19 00:40:41;;;;;;;6.27;5.77;;;;;;;24.17;39.61;98363.94;5180152;27;40028;-75
2023/06/19 00:43:10;;;;;;;6.00;5.50;;;;;;;24.10;39.95;98369.31;5180021;27;41753;-76
2023/06/19 00:45:39;;;;;;;6.03;5.43;;;;;;;23.99;39.74;98362.53;5179568;27;41808;-76
2023/06/19 00:48:07;;;;;;;6.13;5.63;;;;;;;23.92;39.72;98358.94;5162314;27;41345;-75
2023/06/19 00:50:37;;;;;;;6.53;5.93;;;;;;;23.85;40.09;98355.34;5161628;27;38816;-75
2023/06/19 00:53:07;;;;;;;6.10;5.50;;;;;;;23.72;39.88;98352.50;5179525;27;42058;-75
2023/06/19 00:55:35;;;;;;;6.23;5.63;;;;;;;23.70;39.92;98362.66;5179645;27;42564;-75
2023/06/19 00:58:03;;;;;;;6.17;5.67;;;;;;;23.64;40.12;98366.09;5179185;27;41978;-76
2023/06/19 01:00:31;;;;;;;5.60;5.20;;;;;;;23.61;39.99;98371.91;5197867;27;40769;-75
2023/06/19 01:03:00;;;;;;;6.30;5.73;;;;;;;23.59;40.06;98373.97;5160515;27;40746;-75
2023/06/19 01:05:30;;;;;;;6.07;5.57;;;;;;;23.61;40.07;98380.03;5175636;27;42462;-75
2023/06/19 01:08:01;;;;;;;6.23;5.73;;;;;;;23.60;39.99;98375.66;5160980;27;42336;-75
2023/06/19 01:10:34;;;;;;;5.93;5.43;;;;;;;23.64;40.27;98375.06;5194312;27;40034;-75
2023/06/19 01:13:07;;;;;;;6.07;5.57;;;;;;;23.66;40.15;98379.44;5160942;27;40771;-76
2023/06/19 01:15:36;;;;;;;6.17;5.57;;;;;;;23.64;39.90;98377.75;5175437;27;43753;-75
2023/06/19 01:18:05;;;;;;;5.60;5.10;;;;;;;23.62;40.14;98376.25;5177894;27;43011;-76
2023/06/19 01:20:33;;;;;;;5.77;5.27;;;;;;;23.59;39.93;98365.84;5160360;27;38873;-76
2023/06/19 01:23:08;;;;;;;6.83;6.23;;;;;;;23.54;39.81;98370.97;5160518;27;40747;-76
2023/06/19 01:25:36;;;;;;;6.10;5.60;;;;;;;23.48;39.94;98374.44;5194063;27;42708;-75
2023/06/19 01:28:09;;;;;;;6.97;6.37;;;;;;;23.42;39.89;98369.75;5160584;27;42015;-76
2023/06/19 01:30:37;;;;;;;6.87;6.17;;;;;;;23.07;40.60;98317.38;5174380;27;40776;-75
2023/06/19 01:33:10;;;;;;;7.57;6.67;;;;;;;23.29;40.88;98363.16;5178479;27;41512;-75
2023/06/19 01:35:41;;;;;;;7.60;6.90;;;;;;;23.23;40.77;98361.22;5161105;27;41891;-76
2023/06/19 01:38:11;;;;;;;7.63;6.83;;;;;;;23.18;41.08;98360.94;5175831;27;43207;-75
2023/06/19 01:40:41;;;;;;;5.67;5.27;;;;;;;23.07;41.23;98360.59;5179043;27;38921;-75
2023/06/19 01:43:11;;;;;;;6.40;5.90;;;;;;;23.00;41.06;98360.47;5161315;27;40795;-75
2023/06/19 01:45:39;;;;;;;6.27;5.77;;;;;;;22.99;41.79;98361.53;5178703;27;42818;-75
2023/06/19 01:48:08;;;;;;;7.43;6.80;;;;;;;22.93;42.29;98355.00;5178717;27;43178;-75
2023/06/19 01:50:39;;;;;;;7.93;7.17;;;;;;;22.89;42.99;98353.69;5161342;27;40928;-76
2023/06/19 01:53:07;;;;;;;7.93;7.23;;;;;;;22.81;42.88;98355.66;5160943;27;40884;-75
2023/06/19 01:55:37;;;;;;;7.53;6.83;;;;;;;22.76;42.74;98353.50;5176299;27;41560;-76
2023/06/19 01:58:05;;;;;;;7.30;6.63;;;;;;;22.72;42.95;98354.03;5177846;27;43132;-75
2023/06/19 02:00:35;;;;;;;7.87;7.10;;;;;;;22.65;42.57;98353.91;5159847;27;40090;-74
2023/06/19 02:03:02;;;;;;;6.73;6.13;;;;;;;22.57;43.50;98340.53;5177560;27;41719;-74
2023/06/19 02:05:30;;;;;;;7.20;6.23;;;;;;;22.57;43.79;98349.47;5177475;27;42639;-75
2023/06/19 02:07:58;;;;;;;7.37;6.77;;;;;;;22.52;43.39;98346.47;5159921;27;41538;-75
2023/06/19 02:10:25;;;;;;;6.93;6.33;;;;;;;22.47;43.24;98358.84;5159564;27;40088;-74
2023/06/19 02:12:54;;;;;;;7.13;6.53;;;;;;;22.42;43.44;98359.38;5177405;27;42448;-75
2023/06/19 02:15:22;;;;;;;6.80;6.10;;;;;;;22.36;43.29;98360.13;5177363;27;42776;-75
2023/06/19 02:17:54;;;;;;;7.03;6.00;;;;;;;22.28;43.09;98354.78;5195612;27;42222;-75
2023/06/19 02:20:24;;;;;;;6.40;5.90;;;;;;;22.20;43.60;98353.00;5174336;27;40893;-75
2023/06/19 02:22:52;;;;;;;6.27;5.77;;;;;;;22.14;43.78;98363.66;5196052;27;41964;-75
2023/06/19 02:25:20;;;;;;;6.10;5.50;;;;;;;22.08;43.90;98353.63;5176962;27;43708;-74
2023/06/19 02:27:48;;;;;;;6.70;6.00;;;;;;;21.95;44.50;98338.00;5196078;27;43227;-76
2023/06/19 02:30:17;;;;;;;6.77;6.07;;;;;;;21.96;44.34;98355.88;5177190;27;39987;-75
2023/06/19 02:32:44;;;;;;;6.53;5.93;;;;;;;21.92;44.07;98353.69;5177377;27;41817;-74
2023/06/19 02:35:15;;;;;;;6.83;6.23;;;;;;;21.87;44.03;98362.34;5178022;27;42421;-76
2023/06/19 02:37:42;;;;;;;7.30;6.60;;;;;;;21.83;43.89;98367.25;5160178;27;42350;-76
2023/06/19 02:40:11;;;;;;;6.97;6.37;;;;;;;21.81;44.02;98363.88;5160315;27;39920;-74
2023/06/19 02:42:39;;;;;;;6.53;5.93;;;;;;;21.77;43.85;98365.25;5176686;27;41962;-74
2023/06/19 02:45:07;;;;;;;6.63;6.03;;;;;;;21.72;43.62;98354.19;5160443;27;42789;-74
2023/06/19 02:47:38;;;;;;;6.60;6.10;;;;;;;21.70;44.53;98360.78;5177967;27;42064;-74
2023/06/19 02:50:07;;;;;;;7.53;6.83;;;;;;;21.65;44.25;98366.69;5176270;27;40657;-74
2023/06/19 02:52:35;;;;;;;8.93;8.13;;;;;;;21.59;46.34;98364.72;5159007;27;41624;-74
2023/06/19 02:55:02;;;;;;;7.97;7.17;;;;;;;21.53;47.22;98349.25;5176785;27;43822;-74
2023/06/19 02:57:31;;;;;;;9.40;8.60;;;;;;;21.47;47.03;98360.75;5176402;27;42940;-75
2023/06/19 02:59:59;;;;;;;7.70;7.00;;;;;;;21.42;46.60;98363.94;5159393;27;39700;-74
2023/06/19 03:02:28;;;;;;;8.57;7.77;;;;;;;21.40;46.63;98357.06;5158866;27;41196;-74
2023/06/19 03:04:57;;;;;;;9.47;8.03;;;;;;;21.37;46.65;98368.22;5176719;27;42824;-75
2023/06/19 03:07:28;;;;;;;8.23;6.77;;;;;;;21.37;46.04;98370.91;5158688;27;41274;-76
2023/06/19 03:09:56;;;;;;;7.70;7.00;;;;;;;21.36;46.77;98363.84;5158845;27;40026;-74
2023/06/19 03:12:24;;;;;;;8.20;7.50;;;;;;;21.34;46.96;98363.16;5176330;27;41803;-76
2023/06/19 03:14:52;;;;;;;9.13;8.33;;;;;;;21.32;46.98;98371.41;5176395;27;42884;-75
2023/06/19 03:17:19;;;;;;;7.53;6.93;;;;;;;21.33;46.26;98374.94;5176087;27;42241;-75
2023/06/19 03:19:47;;;;;;;7.80;7.10;;;;;;;21.33;46.12;98372.25;5192065;27;39921;-75
2023/06/19 03:22:16;;;;;;;7.70;7.00;;;;;;;21.35;46.35;98383.69;5176094;27;41528;-75
2023/06/19 03:24:44;;;;;;;8.47;7.67;;;;;;;21.30;45.87;98361.81;5176217;27;42779;-74
2023/06/19 03:27:21;;;;;;;7.73;6.77;;;;;;;21.45;45.92;98385.16;5158619;27;41259;-76
2023/06/19 03:29:49;;;;;;;7.70;6.90;;;;;;;21.51;45.94;98391.72;5195178;27;41918;-75
2023/06/19 03:32:23;;;;;;;7.93;7.23;;;;;;;21.56;46.72;98375.84;5158370;27;40465;-74
2023/06/19 03:34:51;;;;;;;8.10;7.40;;;;;;;21.60;46.70;98385.25;5177089;27;43424;-75
2023/06/19 03:37:20;;;;;;;7.53;6.83;;;;;;;21.64;46.64;98388.41;5176760;27;43040;-75
2023/06/19 03:39:49;;;;;;;7.07;6.47;;;;;;;21.69;46.72;98392.28;5159705;27;39008;-74
2023/06/19 03:42:16;;;;;;;7.37;6.67;;;;;;;21.74;47.04;98395.28;5159050;27;41412;-75
2023/06/19 03:44:44;;;;;;;7.27;6.67;;;;;;;21.80;46.39;98410.72;5177046;27;43675;-76
2023/06/19 03:47:12;;;;;;;6.90;6.27;;;;;;;21.86;46.57;98415.44;5159456;27;42356;-75
2023/06/19 03:49:40;;;;;;;7.40;6.70;;;;;;;21.91;46.46;98414.03;5159312;27;39105;-75
2023/06/19 03:52:09;;;;;;;7.57;6.87;;;;;;;21.96;46.80;98419.75;5176296;27;41808;-74
2023/06/19 03:54:38;;;;;;;6.87;6.27;;;;;;;21.89;47.05;98403.41;5176741;27;43659;-76
2023/06/19 03:57:08;;;;;;;7.23;6.63;;;;;;;21.97;47.22;98421.41;5159141;27;41245;-76
2023/06/19 03:59:36;;;;;;;7.90;7.13;;;;;;;21.88;46.88;98396.38;5159366;27;39978;-76
2023/06/19 04:02:04;;;;;;;8.63;7.83;;;;;;;22.13;46.89;98424.84;5174892;27;41764;-77
2023/06/19 04:04:31;;;;;;;8.10;7.40;;;;;;;22.21;46.84;98429.38;5158095;27;41721;-76
2023/06/19 04:06:59;;;;;;;9.03;8.13;;;;;;;22.28;47.14;98424.91;5157852;27;41223;-75
2023/06/19 04:09:27;;;;;;;7.77;7.07;;;;;;;22.35;47.07;98430.44;5158248;27;39081;-76
2023/06/19 04:11:56;;;;;;;8.47;7.63;;;;;;;22.40;47.42;98433.44;5158051;27;41773;-76
2023/06/19 04:14:25;;;;;;;7.63;6.90;;;;;;;22.46;47.69;98432.72;5158033;27;44369;-76
2023/06/19 04:16:52;;;;;;;7.90;7.10;;;;;;;22.50;47.84;98442.94;5157988;27;42175;-76
2023/06/19 04:19:20;;;;;;;7.73;6.97;;;;;;;22.52;47.99;98438.22;5157813;27;41232;-76
2023/06/19 04:21:47;;;;;;;7.97;7.17;;;;;;;22.57;47.47;98449.31;5157799;27;41136;-76
2023/06/19 04:24:15;;;;;;;8.43;7.63;;;;;;;22.49;48.09;98435.91;5175280;27;41647;-76
2023/06/19 04:26:43;;;;;;;7.13;6.43;;;;;;;22.61;48.13;98457.06;5157771;27;41185;-76
2023/06/19 04:29:16;;;;;;;7.97;7.27;;;;;;;22.61;47.85;98451.66;5158022;27;40099;-77
2023/06/19 04:31:46;;;;;;;9.33;8.07;;;;;;;22.60;48.78;98440.03;5157711;27;41888;-76
2023/06/19 04:34:16;;;;;;;8.30;7.40;;;;;;;22.54;48.50;98441.56;5195317;27;43400;-76
2023/06/19 04:36:44;;;;;;;8.43;7.63;;;;;;;22.69;48.17;98448.88;5176061;27;42761;-76
2023/06/19 04:39:12;;;;;;;8.03;7.40;;;;;;;22.79;47.83;98454.88;5176562;27;39759;-76
2023/06/19 04:41:41;;;;;;;7.43;6.73;;;;;;;22.87;48.09;98457.53;5157964;27;41823;-76
2023/06/19 04:44:09;;;;;;;8.20;7.30;;;;;;;22.95;47.57;98451.19;5194979;27;42634;-76
2023/06/19 04:46:38;;;;;;;6.90;6.30;;;;;;;23.03;47.90;98468.16;5194648;27;43164;-77
2023/06/19 04:49:06;;;;;;;7.80;7.20;;;;;;;23.12;47.46;98477.84;5158862;27;39325;-75
2023/06/19 04:51:34;;;;;;;8.10;7.33;;;;;;;23.17;47.39;98480.84;5175656;27;41716;-76
2023/06/19 04:56:57;;;;;;;8.37;7.57;;;;;;;23.25;47.31;98480.75;5163627;27;43282;-76
2023/06/19 04:59:25;;;;;;;7.57;6.87;;;;;;;23.33;47.61;98493.34;5176083;27;39906;-76
2023/06/19 05:01:55;;;;;;;8.37;7.40;;;;;;;23.32;47.68;98497.06;5157575;27;41025;-75
2023/06/19 05:04:23;;;;;;;8.23;7.13;;;;;;;23.39;47.40;98500.69;5157040;27;43035;-76
2023/06/19 05:06:51;;;;;;;7.97;7.17;;;;;;;23.42;47.31;98500.31;5197014;27;42106;-75
2023/06/19 05:09:19;;;;;;;7.30;6.67;;;;;;;23.46;47.31;98500.81;5178588;27;40866;-74
2023/06/19 05:11:47;;;;;;;8.13;7.33;;;;;;;23.51;47.42;98501.09;5178250;27;41799;-75
2023/06/19 05:14:15;;;;;;;8.00;7.30;;;;;;;23.49;46.69;98497.72;5197385;27;42833;-77
2023/06/19 05:16:42;;;;;;;9.30;7.47;;;;;;;23.59;46.81;98512.69;5160624;27;42709;-76
2023/06/19 05:19:11;;;;;;;8.20;7.40;;;;;;;23.54;46.72;98490.75;5160487;27;39990;-76
2023/06/19 05:21:39;;;;;;;8.73;7.30;;;;;;;23.69;46.66;98509.69;5160354;27;40768;-76
2023/06/19 05:24:07;;;;;;;8.70;7.80;;;;;;;23.72;46.57;98514.72;5197178;27;43706;-76
2023/06/19 05:26:35;;;;;;;9.17;7.10;;;;;;;23.75;46.28;98522.44;5177620;27;42376;-76
2023/06/19 05:29:02;;;;;;;7.93;7.13;;;;;;;23.77;45.97;98517.69;5178437;27;40888;-75
2023/06/19 05:31:30;;;;;;;10.37;7.90;;;;;;;23.78;46.21;98526.63;5177390;27;42184;-76
2023/06/19 05:33:58;;;;;;;8.50;7.60;;;;;;;23.80;46.21;98521.88;5178681;27;43594;-76
2023/06/19 05:36:27;;;;;;;7.83;7.13;;;;;;;23.83;46.03;98510.69;5179193;27;42713;-76
2023/06/19 05:38:55;;;;;;;8.80;7.90;;;;;;;23.91;46.09;98522.25;5161544;27;38798;-75
2023/06/19 05:41:23;;;;;;;7.70;6.90;;;;;;;24.00;46.16;98528.38;5160956;27;40802;-76
2023/06/19 05:43:51;;;;;;;7.63;6.93;;;;;;;24.08;46.11;98532.84;5178845;27;43769;-76
2023/06/19 05:46:18;;;;;;;7.40;6.80;;;;;;;24.14;46.16;98532.09;5161112;27;41484;-75
2023/06/19 05:48:46;;;;;;;7.17;6.57;;;;;;;24.23;46.31;98531.00;5178775;27;39329;-76
2023/06/19 05:51:13;;;;;;;7.43;6.70;;;;;;;24.32;46.53;98533.41;5197106;27;41525;-73
2023/06/19 05:53:43;;;;;;;8.13;7.37;;;;;;;24.45;46.34;98529.16;5178473;27;43660;-74
2023/06/19 05:56:11;;;;;;;7.70;6.97;;;;;;;24.63;46.39;98535.78;5160241;27;43441;-74
2023/06/19 05:58:39;;;;;;;8.53;7.73;;;;;;;24.79;46.12;98536.56;5178207;27;40030;-73
2023/06/19 06:01:07;;;;;;;8.20;7.40;;;;;;;24.94;45.98;98550.91;5177878;27;40675;-73
2023/06/19 06:03:35;;;;;;;9.07;8.20;;;;;;;25.04;45.28;98562.25;5197139;27;43484;-74
2023/06/19 06:06:03;;;;;;;6.97;6.37;;;;;;;25.18;45.08;98558.63;5178058;27;42253;-73
2023/06/19 06:08:31;;;;;;;7.03;6.43;;;;;;;25.37;44.88;98579.63;5196081;27;40836;-75
2023/06/19 06:11:01;;;;;;;8.53;7.20;;;;;;;25.57;44.32;98573.53;5152188;27;40930;-82
2023/06/19 06:13:28;;;;;;;7.90;7.20;;;;;;;25.74;44.50;98581.16;5160313;27;41746;-81
2023/06/19 06:15:56;;;;;;;7.50;6.80;;;;;;;25.73;44.12;98546.09;5159108;27;41319;-79
2023/06/19 06:18:24;;;;;;;8.30;7.07;;;;;;;26.11;44.05;98585.34;5160172;27;38988;-81
2023/06/19 06:20:52;;;;;;;6.63;6.13;;;;;;;26.32;43.55;98572.75;5173807;27;41578;-86
2023/06/19 06:23:19;;;;;;;7.83;7.13;;;;;;;26.70;43.04;98598.34;5196608;27;42894;-78
2023/06/19 06:25:47;;;;;;;8.63;7.77;;;;;;;27.07;42.28;98594.28;5159438;27;42326;-79
2023/06/19 06:28:17;;;;;;;7.50;6.83;;;;;;;27.47;41.66;98605.97;5160411;27;38960;-80
2023/06/19 06:30:45;;;;;;;7.47;6.77;;;;;;;27.78;41.33;98613.53;5176848;27;41090;-77
2023/06/19 06:33:12;;;;;;;6.77;6.17;;;;;;;27.92;40.69;98602.63;5196714;27;42873;-77
2023/06/19 06:35:40;;;;;;;6.77;6.17;;;;;;;27.99;40.37;98606.16;5178167;27;43050;-79
2023/06/19 06:38:08;;;;;;;7.40;6.33;;;;;;;28.09;40.59;98612.81;5160998;27;39766;-79
2023/06/19 06:40:36;;;;;;;6.87;6.23;;;;;;;28.23;40.27;98622.66;5177903;27;41745;-81
2023/06/19 06:43:04;;;;;;;7.20;6.47;;;;;;;28.40;40.34;98617.56;5178500;27;42864;-78
2023/06/19 06:45:37;;;;;;;7.87;6.47;;;;;;;28.57;40.05;98628.81;5176462;27;42139;-75
2023/06/19 06:48:05;;;;;;;7.67;6.87;;;;;;;28.94;39.41;98625.28;5160150;27;41371;-76
2023/06/19 06:50:33;;;;;;;6.90;6.20;;;;;;;29.03;39.42;98627.75;5177158;27;41604;-77
2023/06/19 06:53:03;;;;;;;6.50;5.80;;;;;;;29.04;39.59;98629.44;5178220;27;43512;-77
2023/06/19 06:58:36;;;;;;;6.10;5.40;;;;;;;29.16;39.48;98619.50;5161072;27;40452;-80
2023/06/19 07:01:20;;;;;;;5.77;5.23;;;;;;;29.39;39.06;98630.69;5177641;27;41755;-85
2023/06/19 07:03:48;;;;;;;6.90;6.20;;;;;;;29.53;38.72;98624.06;5156949;27;42869;-83
2023/06/19 07:06:15;;;;;;;6.07;5.57;;;;;;;29.59;39.10;98620.41;5159328;27;41154;-84
2023/06/19 07:08:47;;;;;;;6.00;5.40;;;;;;;29.77;38.99;98643.38;5160064;27;38918;-77
2023/06/19 07:11:15;;;;;;;6.40;5.57;;;;;;;29.81;38.99;98625.47;5158677;27;42074;-77
2023/06/19 07:13:42;;;;;;;5.90;5.40;;;;;;;30.03;38.69;98640.41;5159288;27;41731;-79
2023/06/19 07:16:10;;;;;;;5.50;5.10;;;;;;;30.23;38.13;98641.03;5158522;27;41441;-77
2023/06/19 07:18:41;;;;;;;5.83;5.23;;;;;;;30.30;38.05;98641.78;5175987;27;38977;-78
2023/06/19 07:21:13;;;;;;;5.20;4.67;;;;;;;30.19;38.12;98623.41;5191945;27;42748;-80
2023/06/19 07:23:41;;;;;;;5.50;4.80;;;;;;;30.28;38.06;98645.81;5173417;27;43451;-78
2023/06/19 07:26:08;;;;;;;5.40;4.97;;;;;;;30.27;38.62;98636.78;5158615;27;42495;-78
2023/06/19 07:28:37;;;;;;;5.40;5.00;;;;;;;30.30;38.71;98641.78;5175780;27;40802;-76
2023/06/19 07:31:05;;;;;;;4.87;4.40;;;;;;;30.28;38.38;98646.66;5173859;27;41397;-74
2023/06/19 07:33:33;;;;;;;4.83;4.43;;;;;;;30.16;37.92;98633.97;5193522;27;43331;-74
2023/06/19 07:36:02;;;;;;;5.33;4.83;;;;;;;30.18;38.22;98634.56;5174904;27;42318;-74
2023/06/19 07:38:30;;;;;;;5.60;5.10;;;;;;;30.17;38.49;98633.72;5195067;27;40827;-74
2023/06/19 07:40:59;;;;;;;5.23;4.83;;;;;;;30.16;38.57;98634.81;5175203;27;40736;-74
2023/06/19 07:43:26;;;;;;;4.80;4.50;;;;;;;30.15;39.37;98627.69;5176315;27;42842;-74
2023/06/19 07:45:54;;;;;;;5.20;4.77;;;;;;;30.17;39.46;98620.06;5176629;27;41373;-74
2023/06/19 07:48:21;;;;;;;5.93;5.30;;;;;;;30.20;39.00;98638.75;5176736;27;41021;-75
2023/06/19 07:50:49;;;;;;;5.03;4.63;;;;;;;30.16;38.52;98640.28;5176499;27;40785;-74
2023/06/19 07:53:19;;;;;;;5.20;4.10;;;;;;;30.20;38.92;98636.00;5176785;27;42785;-74
2023/06/19 07:55:46;;;;;;;5.30;4.80;;;;;;;30.51;38.43;98642.41;5176511;27;41177;-75
2023/06/19 07:58:14;;;;;;;4.53;4.13;;;;;;;31.17;38.10;98649.75;5159157;27;38708;-74
2023/06/19 08:00:42;;;;;;;4.83;4.40;;;;;;;31.97;36.63;98652.88;5176542;27;42144;-75
2023/06/19 08:03:09;;;;;;;6.07;4.50;;;;;;;33.08;35.13;98659.97;5156900;27;41727;-75
2023/06/19 08:05:37;;;;;;;4.80;4.40;;;;;;;34.33;33.40;98667.88;5157315;27;42505;-74
2023/06/19 08:08:05;;;;;;;4.53;4.10;;;;;;;34.10;33.51;98668.06;5175220;27;40470;-76
2023/06/19 08:10:34;;;;;;;5.20;4.80;;;;;;;34.09;33.22;98666.41;5194347;27;42535;-76
2023/06/19 08:13:02;;;;;;;5.20;4.67;;;;;;;35.33;32.08;98671.34;5157906;27;42804;-74
2023/06/19 08:15:30;;;;;;;5.23;4.83;;;;;;;36.97;29.54;98684.06;5194404;27;42315;-76
2023/06/19 08:17:57;;;;;;;4.60;4.10;;;;;;;37.25;29.32;98689.16;5175199;27;40291;-77
2023/06/19 08:20:25;;;;;;;4.30;4.00;;;;;;;37.32;29.05;98691.66;5175456;27;40656;-75
2023/06/19 08:22:53;;;;;;;4.60;4.20;;;;;;;37.58;28.95;98687.84;5157728;27;41731;-76
2023/06/19 08:25:20;;;;;;;4.78;4.35;;;;;;;38.05;28.22;98704.16;5175251;27;41316;-74
2023/06/19 08:27:50;;;;;;;4.57;4.15;;;;;;;38.30;28.01;98702.50;5194152;27;41562;-75
2023/06/19 08:30:18;;;;;;;4.82;4.30;;;;;;;37.62;28.75;98700.00;5194224;27;41509;-76
2023/06/19 08:32:47;;;;;;;5.30;4.80;;;;;;;36.89;29.08;98696.47;5174892;27;41724;-75
2023/06/19 08:35:15;;;;;;;4.87;4.50;;;;;;;36.32;30.12;98704.72;5195029;27;42246;-75
2023/06/19 08:37:42;;;;;;;4.43;4.00;;;;;;;35.92;30.27;98706.06;5176054;27;40939;-76
2023/06/19 08:40:12;;;;;;;4.93;4.53;;;;;;;35.51;31.01;98695.72;5196605;27;41690;-75
2023/06/19 08:42:42;;;;;;;4.37;4.07;;;;;;;35.11;31.32;98696.97;5198189;27;43508;-75
2023/06/19 08:45:12;;;;;;;5.03;4.60;;;;;;;34.86;32.10;98680.16;5162349;27;41358;-74
2023/06/19 08:47:42;;;;;;;5.97;4.87;;;;;;;34.74;32.03;98712.44;5197328;27;40964;-76
2023/06/19 08:50:10;;;;;;;4.77;4.37;;;;;;;34.41;32.84;98697.69;5179668;27;41777;-74
2023/06/19 08:52:38;;;;;;;5.40;5.00;;;;;;;34.21;33.42;98697.38;5178826;27;43291;-75
2023/06/19 08:55:07;;;;;;;3.97;3.67;;;;;;;34.60;33.46;98700.97;5179586;27;42261;-74
2023/06/19 08:57:36;;;;;;;7.37;5.10;;;;;;;34.93;32.33;98697.28;5198262;27;40892;-74
2023/06/19 09:00:06;;;;;;;4.43;4.07;;;;;;;34.92;32.37;98698.38;5179591;27;42107;-74
2023/06/19 09:02:41;;;;;;;4.30;3.83;;;;;;;35.04;33.01;98696.31;5177936;27;42629;-75
2023/06/19 09:05:15;;;;;;;5.53;4.23;;;;;;;35.43;31.79;98694.28;5178026;27;41350;-75
2023/06/19 09:07:43;;;;;;;4.40;4.10;;;;;;;36.27;31.44;98710.19;5160743;27;40400;-74
2023/06/19 09:10:20;;;;;;;4.97;4.47;;;;;;;37.16;30.24;98712.88;5178556;27;42554;-75
2023/06/19 09:12:58;;;;;;;4.63;4.00;;;;;;;37.58;29.97;98706.34;5160886;27;41725;-75
2023/06/19 09:15:29;;;;;;;3.90;3.60;;;;;;;37.73;29.53;98706.38;5174914;27;43237;-75
2023/06/19 09:18:06;;;;;;;4.43;4.10;;;;;;;37.61;29.69;98714.06;5195731;27;41914;-74
2023/06/19 09:20:36;;;;;;;4.40;4.10;;;;;;;37.45;29.83;98715.16;5175132;27;41373;-76
2023/06/19 09:23:03;;;;;;;4.73;4.27;;;;;;;37.78;29.79;98711.91;5177885;27;44632;-74
2023/06/19 09:25:31;;;;;;;4.53;4.23;;;;;;;38.25;28.74;98716.34;5196929;27;42424;-75
2023/06/19 09:27:59;;;;;;;4.72;4.32;;;;;;;38.58;28.81;98718.50;5196555;27;39834;-75
2023/06/19 09:30:26;;;;;;;5.18;4.78;;;;;;;38.96;28.11;98729.97;5178081;27;41735;-76
2023/06/19 09:32:54;;;;;;;4.50;4.20;;;;;;;38.85;28.23;98739.44;5160749;27;42269;-74
2023/06/19 09:35:24;;;;;;;4.13;3.80;;;;;;;38.56;28.20;98737.34;5197717;27;42441;-76
2023/06/19 09:37:57;;;;;;;4.13;3.90;;;;;;;37.94;28.89;98727.41;5161029;27;40273;-75
2023/06/19 09:40:24;;;;;;;4.93;4.40;;;;;;;37.38;29.38;98712.66;5194338;27;41480;-75
2023/06/19 09:42:56;;;;;;;4.90;4.50;;;;;;;36.74;29.65;98715.72;5178731;27;43101;-75
2023/06/19 09:45:32;;;;;;;5.30;4.93;;;;;;;36.27;30.59;98711.03;5175395;27;43239;-75
2023/06/19 09:47:59;;;;;;;4.87;4.57;;;;;;;36.44;31.22;98708.09;5177773;27;40193;-74
2023/06/19 09:50:49;;;;;;;5.17;4.77;;;;;;;36.46;30.81;98711.44;5174650;27;41758;-75
2023/06/19 09:53:18;;;;;;;4.77;4.33;;;;;;;37.29;29.91;98708.78;5196702;27;42913;-74
2023/06/19 09:55:47;;;;;;;4.75;4.30;;;;;;;38.60;29.06;98710.75;5178311;27;42602;-76
2023/06/19 09:58:16;;;;;;;4.20;3.90;;;;;;;38.78;28.52;98721.22;5160801;27;40299;-76
2023/06/19 10:00:44;;;;;;;4.57;4.22;;;;;;;38.56;28.44;98703.31;5160271;27;41780;-77
2023/06/19 10:03:13;;;;;;;5.13;4.60;;;;;;;38.10;28.85;98717.19;5176400;27;43111;-75
2023/06/19 10:05:41;;;;;;;5.15;4.63;;;;;;;37.68;29.42;98711.91;5176706;27;41255;-77
2023/06/19 10:08:11;;;;;;;5.13;4.13;;;;;;;37.49;30.84;98705.22;5195959;27;40661;-77
2023/06/19 10:10:47;;;;;;;4.93;4.53;;;;;;;37.20;30.44;98696.59;5195896;27;42717;-75
2023/06/19 10:13:16;;;;;;;5.23;4.27;;;;;;;37.06;31.11;98718.34;5195406;27;43014;-75
2023/06/19 10:15:47;;;;;;;4.27;3.90;;;;;;;37.18;31.17;98713.44;5177005;27;41186;-75
2023/06/19 10:18:20;;;;;;;5.17;4.67;;;;;;;37.18;30.99;98705.16;5176065;27;38827;-75
2023/06/19 10:20:48;;;;;;;4.83;4.43;;;;;;;37.27;30.16;98711.81;5176903;27;41913;-75
2023/06/19 10:23:19;;;;;;;6.07;5.00;;;;;;;37.30;30.29;98715.97;5159449;27;42785;-76
2023/06/19 10:25:48;;;;;;;5.03;4.53;;;;;;;37.55;29.95;98709.66;5159848;27;41078;-76
2023/06/19 10:28:21;;;;;;;5.40;4.90;;;;;;;37.89;29.75;98721.88;5159454;27;39923;-76
2023/06/19 10:30:56;;;;;;;4.88;4.57;;;;;;;38.07;29.77;98717.72;5192486;27;42752;-75
2023/06/19 10:33:25;;;;;;;5.72;5.22;;;;;;;37.77;29.73;98713.00;5176976;27;42896;-75
2023/06/19 10:35:54;;;;;;;5.40;4.90;;;;;;;37.48;30.19;98711.84;5177797;27;41368;-75
2023/06/19 10:38:23;;;;;;;5.28;4.78;;;;;;;37.87;30.40;98712.19;5196670;27;40758;-75
2023/06/19 10:41:24;;;;;;;5.00;4.60;;;;;;;38.10;30.07;98715.25;5196682;27;42435;-75
2023/06/19 10:43:57;;;;;;;5.18;4.78;;;;;;;38.49;30.44;98708.25;5177466;27;42704;-75
2023/06/19 10:46:29;;;;;;;5.53;5.13;;;;;;;38.52;29.62;98705.75;5196588;27;42257;-76
2023/06/19 10:49:00;;;;;;;5.80;5.32;;;;;;;38.32;29.72;98709.41;5160493;27;38863;-75
2023/06/19 10:51:29;;;;;;;5.38;4.97;;;;;;;38.30;29.64;98705.28;5160090;27;41447;-76
2023/06/19 10:53:59;;;;;;;5.20;4.70;;;;;;;38.40;29.73;98699.72;5177466;27;43362;-76
2023/06/19 10:56:27;;;;;;;5.30;4.85;;;;;;;38.45;29.89;98703.28;5177175;27;43052;-76
2023/06/19 10:58:59;;;;;;;4.65;4.35;;;;;;;38.55;29.91;98691.41;5177621;27;39892;-75
2023/06/19 11:01:36;;;;;;;5.07;4.70;;;;;;;38.47;29.68;98694.69;5196748;27;20661;-75
2023/06/19 11:04:08;;;;;;;4.97;4.65;;;;;;;38.19;30.32;98693.41;5174582;27;43921;-76
2023/06/19 11:06:36;;;;;;;6.00;5.30;;;;;;;38.04;29.87;98696.97;5173248;27;43314;-76
2023/06/19 11:09:07;;;;;;;5.57;5.18;;;;;;;38.09;30.28;98691.44;5195138;27;40035;-75
2023/06/19 11:11:36;;;;;;;5.50;5.05;;;;;;;38.56;29.95;98687.53;5176609;27;41155;-76
2023/06/19 11:14:05;;;;;;;5.30;4.90;;;;;;;38.98;29.83;98683.47;5175794;27;41943;-75
2023/06/19 11:16:33;;;;;;;5.43;5.03;;;;;;;38.76;29.32;98695.75;5195307;27;42354;-76
2023/06/19 11:26:28;;;;;;;5.30;4.93;;;;;;;38.08;29.74;98681.50;5190041;27;44161;-76
2023/06/19 11:28:56;;;;;;;5.40;4.88;;;;;;;38.28;29.90;98691.72;5155254;27;41267;-75
2023/06/19 11:31:28;;;;;;;5.73;5.23;;;;;;;38.10;29.95;98695.88;5173708;27;39949;-76
2023/06/19 11:34:01;;;;;;;5.00;4.60;;;;;;;37.84;30.47;98682.31;5171312;27;41852;-76
2023/06/19 11:36:29;;;;;;;5.63;5.00;;;;;;;37.83;30.79;98677.91;5174829;27;42631;-75
2023/06/19 11:38:57;;;;;;;6.77;6.10;;;;;;;37.91;30.74;98680.94;5156010;27;41597;-75
2023/06/19 11:41:28;;;;;;;5.70;5.20;;;;;;;38.15;30.26;98686.75;5138482;27;38939;-75
2023/06/19 11:44:00;;;;;;;5.90;5.40;;;;;;;38.36;30.24;98682.00;5153155;27;41748;-76
2023/06/19 11:46:32;;;;;;;6.30;5.80;;;;;;;38.60;29.46;98685.81;5155765;27;42948;-75
2023/06/19 11:49:11;;;;;;;6.13;5.18;;;;;;;38.96;29.09;98674.59;5138535;27;40887;-75
2023/06/19 11:51:39;;;;;;;6.13;5.47;;;;;;;39.71;28.37;98692.72;5174162;27;40775;-75
2023/06/19 11:54:09;;;;;;;7.13;5.35;;;;;;;40.28;27.35;98696.72;5174657;27;41901;-75
2023/06/19 11:56:39;;;;;;;5.60;4.88;;;;;;;40.57;27.15;98682.78;5137891;27;42665;-75